KBLV/BLV METAR and TAF weather

Enter ICAO airport designator
Station Type Date Time Source
KBLV METAR 2019/12/14 05:56 UTC NOAA

KBLV 140556Z AUTO 00000KT 10SM BR CLR M02/M03 A2976 RMK AO2 VIS 1 7/8 RWY32L SLP084 T10201027 10050 21022 400841032 57012 $


Station Type Date Time Source
KBLV Decoded METAR 2019/12/14 05:56 UTC NOAA

Belleville, Scott AFB/MidAmerica Airport, IL, United States (KBLV) 38-33N 089-51W
Dec 14, 2019 - 12:56 AM EST / 2019.12.14 0556 UTC
Wind: Calm:0
Visibility: 10 mile(s):0
Sky conditions: clear
Weather: mist
Temperature: 28.4 F (-2.0 C)
Dew Point: 27.1 F (-2.7 C)
Relative Humidity: 94%
Pressure (altimeter): 29.76 in. Hg (1007 hPa)
Pressure tendency: 0.04 inches (1.2 hPa) lower than three hours ago
ob: KBLV 140556Z AUTO 00000KT 10SM BR CLR M02/M03 A2976 RMK AO2 VIS 1 7/8 RWY32L SLP084 T10201027 10050 21022 400841032 57012
cycle: 6

Station Type Date Time Source
KBLV TAF 2019/12/14 04:17 UTC NOAA

TAF COR KBLV 140402Z 1404/1506 VRB06KT 9999 OVC060 QNH2974INS
BECMG 1408/1409 VRB06KT 9999 OVC030 QNH2971INS
BECMG 1415/1416 30009KT 8000 -SHRA OVC004 QNH2977INS
BECMG 1417/1418 34012KT 9999 NSW OVC015 QNH2979INS
BECMG 1504/1505 32006KT 9999 BKN100 QNH2994INS TX04/1416Z TN00/1406Z

Example: see airport list